Craig G — WDB5332 — position and weather

sailwx.info

Track history (hours):
 
Tides and Currents Weather Stations Pressure Air Temp Water Temp Dewpoint Dewpoint Depression Visibility Wind Speed Wind Dir Waves Ship Positions

Craig G

Owner: San Diego Towing & Marine Services,Inc., San Diego, CA. More information available from US FCC via Universal Licensing System and Coast Guard Vessel Documentation Center.

Last reported at 2015-Jul-30 00:32 UTC. Time now 2015-Jul-30 04:09 UTC.
Position N 32°41' W 117°14'.

Length 28 m; draft 2 m.

Type: Other ship. MMSI: 366908460.

Date/timePositionNaut miles runAvg speedWind from/ knotsBaromVisibWave heightAir tempDewpointWater temp
2015-Jul-30 00:32N 32°41' W 117°14'2 2.0
2015-Jul-29 23:33N 32°43' W 117°14'3 3.1
2015-Jul-29 22:34N 32°40' W 117°14'1515.1
2015-Jul-29 21:33N 32°44' W 117°31'1817.8
2015-Jul-29 20:34N 32°51' W 117°50'10 2.6
2015-Jul-29 16:33N 32°53' W 118°02'1717.1
2015-Jul-29 15:33N 32°47' W 117°43'1716.8
2015-Jul-29 14:33N 32°41' W 117°25'10 0.7
2015-Jul-29 01:33N 32°43' W 117°14'5 5.4
2015-Jul-29 00:33N 32°39' W 117°17'1817.8
2015-Jul-28 23:34N 32°44' W 117°37'1817.7
2015-Jul-28 22:33N 32°50' W 117°57'2217.8
2015-Jul-28 21:21N 32°56' W 118°22'1013.2
2015-Jul-28 20:33N 33°00' W 118°33'1313.2
2015-Jul-28 19:33N 32°60' W 118°17'2 2.2
2015-Jul-28 18:32N 33°02' W 118°17'16 7.2
2015-Jul-28 16:19N 32°52' W 118°01'1317.0
2015-Jul-28 15:33N 32°48' W 117°47'1717.3
2015-Jul-28 14:33N 32°42' W 117°28'11 9.5
2015-Jul-28 13:21N 32°41' W 117°14'  
2015-Jul-23 22:31N 32°39' W 117°17'1717.4
2015-Jul-23 21:33N 32°45' W 117°36'1717.5
2015-Jul-23 20:33N 32°52' W 117°55'1717.0
2015-Jul-23 19:33N 32°58' W 118°14'14 3.6
2015-Jul-23 15:33N 32°51' W 117°59'1616.2
2015-Jul-23 14:34N 32°45' W 117°41'10 9.7
2015-Jul-23 13:34N 32°42' W 117°30'1413.8
2015-Jul-23 12:33N 32°40' W 117°14'3 0.2
2015-Jul-23 00:33N 32°42' W 117°14'1 0.9
2015-Jul-22 23:33N 32°43' W 117°14'5 5.1
2015-Jul-22 22:33N 32°38' W 117°16'1817.7
2015-Jul-22 21:33N 32°45' W 117°36'1817.8
2015-Jul-22 20:33N 32°52' W 117°55'2416.3
2015-Jul-22 19:05N 33°01' W 118°22'17 6.4
2015-Jul-22 16:25N 32°53' W 118°03'1416.9
2015-Jul-22 15:33N 32°49' W 117°47'1716.6
2015-Jul-22 14:33N 32°43' W 117°28'1211.0
2015-Jul-22 13:27N 32°41' W 117°14'0 0.0
2015-Jul-22 12:27N 32°41' W 117°14'0 0.0
2015-Jul-22 01:09N 32°41' W 117°14'2 3.6
2015-Jul-22 00:34N 32°39' W 117°14'1716.8
2015-Jul-21 23:34N 32°43' W 117°33'1817.9
2015-Jul-21 22:34N 32°48' W 117°54'12 2.0
2015-Jul-21 16:33N 32°54' W 118°06'1717.0
2015-Jul-21 15:34N 32°48' W 117°47'1716.5
2015-Jul-21 14:34N 32°42' W 117°29'  
Track history (hours):
 
Tides and Currents Weather Stations Pressure Air Temp Water Temp Dewpoint Dewpoint Depression Visibility Wind Speed Wind Dir Waves Ship Positions

Craig G

Owner: San Diego Towing & Marine Services,Inc., San Diego, CA. More information available from US FCC via Universal Licensing System and Coast Guard Vessel Documentation Center.

Last reported at 2015-Jul-30 00:32 UTC. Time now 2015-Jul-30 04:09 UTC.
Position N 32°41' W 117°14'.

Length 28 m; draft 2 m.

Type: Other ship. MMSI: 366908460.

Date/timePositionNaut miles runAvg speedWind from/ knotsBaromVisibWave heightAir tempDewpointWater temp
2015-Jul-30 00:32N 32°41' W 117°14'2 2.0
2015-Jul-29 23:33N 32°43' W 117°14'3 3.1
2015-Jul-29 22:34N 32°40' W 117°14'1515.1
2015-Jul-29 21:33N 32°44' W 117°31'1817.8
2015-Jul-29 20:34N 32°51' W 117°50'10 2.6
2015-Jul-29 16:33N 32°53' W 118°02'1717.1
2015-Jul-29 15:33N 32°47' W 117°43'1716.8
2015-Jul-29 14:33N 32°41' W 117°25'10 0.7
2015-Jul-29 01:33N 32°43' W 117°14'5 5.4
2015-Jul-29 00:33N 32°39' W 117°17'1817.8
2015-Jul-28 23:34N 32°44' W 117°37'1817.7
2015-Jul-28 22:33N 32°50' W 117°57'2217.8
2015-Jul-28 21:21N 32°56' W 118°22'1013.2
2015-Jul-28 20:33N 33°00' W 118°33'1313.2
2015-Jul-28 19:33N 32°60' W 118°17'2 2.2
2015-Jul-28 18:32N 33°02' W 118°17'16 7.2
2015-Jul-28 16:19N 32°52' W 118°01'1317.0
2015-Jul-28 15:33N 32°48' W 117°47'1717.3
2015-Jul-28 14:33N 32°42' W 117°28'11 9.5
2015-Jul-28 13:21N 32°41' W 117°14'  
2015-Jul-23 22:31N 32°39' W 117°17'1717.4
2015-Jul-23 21:33N 32°45' W 117°36'1717.5
2015-Jul-23 20:33N 32°52' W 117°55'1717.0
2015-Jul-23 19:33N 32°58' W 118°14'14 3.6
2015-Jul-23 15:33N 32°51' W 117°59'1616.2
2015-Jul-23 14:34N 32°45' W 117°41'10 9.7
2015-Jul-23 13:34N 32°42' W 117°30'1413.8
2015-Jul-23 12:33N 32°40' W 117°14'3 0.2
2015-Jul-23 00:33N 32°42' W 117°14'1 0.9
2015-Jul-22 23:33N 32°43' W 117°14'5 5.1
2015-Jul-22 22:33N 32°38' W 117°16'1817.7
2015-Jul-22 21:33N 32°45' W 117°36'1817.8
2015-Jul-22 20:33N 32°52' W 117°55'2416.3
2015-Jul-22 19:05N 33°01' W 118°22'17 6.4
2015-Jul-22 16:25N 32°53' W 118°03'1416.9
2015-Jul-22 15:33N 32°49' W 117°47'1716.6
2015-Jul-22 14:33N 32°43' W 117°28'1211.0
2015-Jul-22 13:27N 32°41' W 117°14'0 0.0
2015-Jul-22 12:27N 32°41' W 117°14'0 0.0
2015-Jul-22 01:09N 32°41' W 117°14'2 3.6
2015-Jul-22 00:34N 32°39' W 117°14'1716.8
2015-Jul-21 23:34N 32°43' W 117°33'1817.9
2015-Jul-21 22:34N 32°48' W 117°54'12 2.0
2015-Jul-21 16:33N 32°54' W 118°06'1717.0
2015-Jul-21 15:34N 32°48' W 117°47'1716.5
2015-Jul-21 14:34N 32°42' W 117°29'  

Dump ship's entire track history